»·PEaware :: N52GR KLAS-KSNA

N52GR :: KLAS-KSNA

FLIGHT INFORMATION

Flight Status: Arrived
Operator: Privately registered:
United States
More flights under this callsign
Pilot: Gustavo R. (23885)
Aircraft: AIRBUS A320
(A320)
More flights by this aircraft type
Origin: KLAS McCarran Intl
United States
Destination: KSNA John Wayne-Orange Co
United States
More flights between these airports :: More routes between these airports
Route: +BOACH8 WHIGG FEYLA DSNEE4
File this flight plan on PilotEdge
Remarks:
Altitude:
(Current/Filed)
36,000ft
Speed:
(Current/Filed)
420kts
Departed: 18-Mar-20 08:14 PM
Arrived: 18-Mar-20 09:08 PM
Distance/Time
Traveled:
197nm/0:54
Distance/Time
To Go:
Arrived

Flight Plot

Page will automatically refresh every two minutes.

Flight plan parsing failed; only flown route is shown


Map Options




Map Legend


Flown Route
Filed Route
Departure Airport
Arrival Airport
Navaid (VOR, NDB)
Fix

Horizontal Profiles

Position Reports

Time Latitude Longitude Heading Altitude Ground
Speed
18-Mar-20 18:48 36.082412 -115.152920 357 2190ft 0kts
18-Mar-20 18:49 36.082412 -115.152920 357 2190ft 0kts
18-Mar-20 18:50 36.082412 -115.152920 357 2190ft 0kts
18-Mar-20 18:51 36.082412 -115.152920 357 2190ft 0kts
18-Mar-20 18:52 36.082412 -115.152920 357 2190ft 0kts
18-Mar-20 18:53 36.082412 -115.152920 357 2190ft 0kts
18-Mar-20 18:54 36.082412 -115.152920 357 2190ft 0kts
18-Mar-20 18:55 36.082412 -115.152920 357 2190ft 0kts
18-Mar-20 18:56 36.082412 -115.152920 357 2190ft 0kts
18-Mar-20 18:57 36.082412 -115.152920 357 2190ft 0kts
18-Mar-20 18:58 36.082412 -115.152920 357 2190ft 0kts
18-Mar-20 18:59 36.082412 -115.152920 357 2190ft 0kts
18-Mar-20 19:00 36.082412 -115.152920 357 2190ft 0kts
18-Mar-20 19:01 36.082412 -115.152920 357 2190ft 0kts
18-Mar-20 19:02 36.082412 -115.152920 357 2190ft 0kts
18-Mar-20 19:03 36.082412 -115.152920 357 2190ft 0kts
18-Mar-20 19:04 36.082412 -115.152920 357 2190ft 0kts
18-Mar-20 19:05 36.082412 -115.152920 357 2190ft 0kts
18-Mar-20 19:06 36.082412 -115.152920 357 2190ft 0kts
18-Mar-20 19:07 36.082412 -115.152920 357 2190ft 0kts
18-Mar-20 19:08 36.082412 -115.152920 357 2190ft 0kts
18-Mar-20 19:09 36.082412 -115.152920 357 2190ft 0kts
18-Mar-20 19:10 36.082412 -115.152920 357 2190ft 0kts
18-Mar-20 19:11 36.082412 -115.152920 357 2190ft 0kts
18-Mar-20 19:12 36.082412 -115.152920 357 2190ft 0kts
18-Mar-20 19:13 36.082412 -115.152920 357 2190ft 0kts
18-Mar-20 19:14 36.082412 -115.152920 357 2190ft 0kts
18-Mar-20 19:15 36.082412 -115.152920 357 2190ft 0kts
18-Mar-20 19:16 36.082412 -115.152920 357 2190ft 0kts
18-Mar-20 19:17 36.082412 -115.152920 357 2190ft 0kts
18-Mar-20 19:18 36.082412 -115.152920 357 2190ft 0kts
18-Mar-20 19:19 36.082412 -115.152920 357 2190ft 0kts
18-Mar-20 19:20 36.082412 -115.152920 357 2190ft 0kts
18-Mar-20 19:21 36.082412 -115.152920 357 2190ft 0kts
18-Mar-20 19:22 36.082412 -115.152920 357 2190ft 0kts
18-Mar-20 19:23 36.082412 -115.152920 357 2190ft 0kts
18-Mar-20 19:24 36.082412 -115.152920 357 2190ft 0kts
18-Mar-20 19:25 36.082412 -115.152920 357 2190ft 0kts
18-Mar-20 19:26 36.082412 -115.152920 357 2190ft 0kts
18-Mar-20 19:27 36.082412 -115.152920 357 2190ft 0kts
18-Mar-20 19:28 36.082412 -115.152920 357 2190ft 0kts
18-Mar-20 19:29 36.082412 -115.152920 357 2190ft 0kts
18-Mar-20 19:30 36.082412 -115.152920 357 2190ft 0kts
18-Mar-20 19:31 36.082412 -115.152920 357 2190ft 0kts
18-Mar-20 19:32 36.082412 -115.152920 357 2190ft 0kts
18-Mar-20 19:33 36.082412 -115.152920 357 2190ft 0kts
18-Mar-20 19:34 36.082412 -115.152920 357 2190ft 0kts
18-Mar-20 19:35 36.082412 -115.152920 357 2190ft 0kts
18-Mar-20 19:37 36.082412 -115.152920 357 2190ft 0kts
18-Mar-20 19:38 36.082412 -115.152920 357 2190ft 0kts
18-Mar-20 19:39 36.082412 -115.152920 357 2190ft 0kts
18-Mar-20 19:40 36.082412 -115.152920 357 2190ft 0kts
18-Mar-20 19:41 36.082412 -115.152920 357 2190ft 0kts
18-Mar-20 19:42 36.082412 -115.152920 357 2190ft 0kts
18-Mar-20 19:43 36.082412 -115.152920 357 2190ft 0kts
18-Mar-20 19:44 36.082412 -115.152920 357 2190ft 0kts
18-Mar-20 19:45 36.082412 -115.152920 357 2190ft 0kts
18-Mar-20 19:46 36.082412 -115.152920 357 2190ft 0kts
18-Mar-20 19:47 36.082412 -115.152920 357 2190ft 0kts
18-Mar-20 19:48 36.082412 -115.152920 357 2190ft 0kts
18-Mar-20 19:49 36.082412 -115.152920 357 2190ft 0kts
18-Mar-20 19:50 36.082412 -115.152920 357 2190ft 0kts
18-Mar-20 19:51 36.082412 -115.152920 357 2190ft 0kts
18-Mar-20 19:52 36.082412 -115.152920 357 2190ft 0kts
18-Mar-20 19:53 36.082412 -115.152920 357 2190ft 0kts
18-Mar-20 19:54 36.082412 -115.152920 357 2190ft 0kts
18-Mar-20 19:55 36.082412 -115.152920 357 2190ft 0kts
18-Mar-20 19:55 36.082412 -115.152920 357 2190ft 0kts
18-Mar-20 19:56 36.082412 -115.152920 357 2190ft 0kts
18-Mar-20 19:58 36.082412 -115.152920 357 2190ft 0kts
18-Mar-20 19:58 36.082412 -115.152920 357 2190ft 0kts
18-Mar-20 19:59 36.082049 -115.152836 326 2190ft 2kts
18-Mar-20 20:01 36.081846 -115.152359 272 2190ft 0kts
18-Mar-20 20:01 36.081846 -115.152360 272 2190ft 0kts
18-Mar-20 20:02 36.081846 -115.152360 272 2190ft 0kts
18-Mar-20 20:03 36.081332 -115.153886 277 2190ft 10kts
18-Mar-20 20:04 36.081620 -115.158624 270 2190ft 15kts
18-Mar-20 20:05 36.079373 -115.162306 204 2190ft 16kts
18-Mar-20 20:06 36.078019 -115.163758 270 2190ft 0kts
18-Mar-20 20:07 36.078019 -115.163758 270 2190ft 0kts
18-Mar-20 20:08 36.078019 -115.163758 270 2190ft 0kts
18-Mar-20 20:09 36.078019 -115.163758 270 2190ft 0kts
18-Mar-20 20:10 36.078019 -115.163758 270 2190ft 0kts
18-Mar-20 20:11 36.078019 -115.163758 270 2190ft 0kts
18-Mar-20 20:12 36.078079 -115.164918 313 2190ft 4kts
18-Mar-20 20:13 36.083922 -115.161949 24 2190ft 118kts
18-Mar-20 20:14 36.128021 -115.153935 331 4942ft 208kts
18-Mar-20 20:15 36.128659 -115.232938 247 9126ft 269kts
18-Mar-20 20:16 36.078811 -115.304459 202 12798ft 299kts
18-Mar-20 20:17 35.997497 -115.342179 202 14826ft 353kts
18-Mar-20 20:18 35.906611 -115.379692 180 17358ft 371kts
18-Mar-20 20:19 35.812834 -115.347315 164 19475ft 385kts
18-Mar-20 20:20 35.709988 -115.310454 179 21525ft 392kts
18-Mar-20 20:21 35.621927 -115.370507 229 22780ft 385kts
18-Mar-20 20:22 35.550644 -115.466432 228 23547ft 394kts
18-Mar-20 20:23 35.478710 -115.563074 229 25214ft 402kts
18-Mar-20 20:24 35.405953 -115.661156 228 26693ft 410kts
18-Mar-20 20:25 35.331308 -115.761450 228 28047ft 418kts
18-Mar-20 20:26 35.254483 -115.864361 228 29308ft 426kts
18-Mar-20 20:27 35.174351 -115.967630 226 30453ft 432kts
18-Mar-20 20:28 35.092711 -116.070486 226 31775ft 428kts
18-Mar-20 20:29 35.014095 -116.169257 226 31797ft 426kts
18-Mar-20 20:30 34.934730 -116.268671 227 31822ft 420kts
18-Mar-20 20:31 34.857489 -116.365672 229 31310ft 413kts
18-Mar-20 20:32 34.783737 -116.459757 229 27112ft 406kts
18-Mar-20 20:33 34.717694 -116.543500 230 25370ft 350kts
18-Mar-20 20:34 34.650090 -116.616990 223 23701ft 353kts
18-Mar-20 20:35 34.578504 -116.687048 223 21931ft 350kts
18-Mar-20 20:36 34.511352 -116.752667 224 20233ft 348kts
18-Mar-20 20:37 34.445494 -116.827887 228 19560ft 365kts
18-Mar-20 20:38 34.376480 -116.907869 227 17198ft 370kts
18-Mar-20 20:39 34.308028 -116.986860 227 15252ft 359kts
18-Mar-20 20:40 34.239016 -117.053682 214 13670ft 346kts
18-Mar-20 20:41 34.173937 -117.100364 211 13310ft 336kts
18-Mar-20 20:42 34.100416 -117.140489 207 12547ft 329kts
18-Mar-20 20:43 34.026791 -117.179942 207 12126ft 327kts
18-Mar-20 20:44 33.960067 -117.247035 231 10410ft 322kts
18-Mar-20 20:45 33.909431 -117.318176 232 9597ft 289kts
18-Mar-20 20:46 33.862822 -117.384149 232 8399ft 275kts
18-Mar-20 20:47 33.822030 -117.441641 234 7986ft 226kts
18-Mar-20 20:48 33.801071 -117.506554 260 7511ft 237kts
18-Mar-20 20:49 33.799957 -117.578290 273 6874ft 234kts
18-Mar-20 20:50 33.819962 -117.645724 303 6123ft 231kts
18-Mar-20 20:51 33.850754 -117.700190 302 5713ft 208kts
18-Mar-20 20:52 33.870320 -117.753925 255 4666ft 218kts
18-Mar-20 20:53 33.837893 -117.792886 184 3689ft 217kts
18-Mar-20 20:54 33.795013 -117.799068 207 3001ft 155kts
18-Mar-20 20:55 33.794007 -117.833038 302 2987ft 143kts
18-Mar-20 20:56 33.816952 -117.864281 353 2993ft 154kts
18-Mar-20 20:57 33.853578 -117.839303 32 3084ft 169kts
18-Mar-20 20:58 33.891562 -117.806157 51 2966ft 154kts
18-Mar-20 20:59 33.882711 -117.755786 112 2977ft 156kts
18-Mar-20 21:00 33.853809 -117.744435 226 2982ft 143kts
18-Mar-20 21:01 33.830590 -117.770501 211 2974ft 138kts
18-Mar-20 21:02 33.800796 -117.789640 209 2704ft 139kts
18-Mar-20 21:03 33.770646 -117.808733 208 2009ft 139kts
18-Mar-20 21:04 33.734039 -117.831915 208 1233ft 137kts
18-Mar-20 21:05 33.703564 -117.851218 208 576ft 135kts
18-Mar-20 21:06 33.673308 -117.870308 207 65ft 58kts
18-Mar-20 21:07 33.669714 -117.872139 161 65ft 9kts
18-Mar-20 21:08 33.669855 -117.870183 39 65ft 9kts
18-Mar-20 21:09 33.671722 -117.868389 30 65ft 16kts
18-Mar-20 21:10 33.672510 -117.866705 119 65ft 0kts
18-Mar-20 21:11 33.672510 -117.866705 119 65ft 0kts
18-Mar-20 21:12 33.672510 -117.866705 119 65ft 0kts
18-Mar-20 21:13 33.672510 -117.866705 119 65ft 0kts

Navigation Log

Ident Type
Flight plan parsing failed, navigation log unavailable